Time;durP1;ratioP1;P1;durP2;ratioP2;P2;SDS_P1;SDS_P2;PMS_P1;PMS_P2;Temp;Humidity;BMP_temperature;BMP_pressure;BME280_temperature;BME280_humidity;BME280_pressure;Samples;Min_cycle;Max_cycle;Signal;HPM_P1;HPM_P2
2021/03/04 00:02:18;;;;;;;44.00;22.90;;;8.90;68.50;;;;;;5033251;28;20111;-66
2021/03/04 00:04:43;;;;;;;34.05;18.15;;;8.90;68.40;;;;;;5033096;28;20021;-65
2021/03/04 00:07:09;;;;;;;35.15;18.38;;;8.80;68.40;;;;;;5033660;28;20034;-66
2021/03/04 00:09:35;;;;;;;37.72;19.38;;;8.80;68.50;;;;;;5033504;28;20077;-67
2021/03/04 00:12:00;;;;;;;33.75;18.08;;;8.80;68.60;;;;;;5033669;28;20056;-66
2021/03/04 00:14:26;;;;;;;35.67;18.65;;;8.80;68.70;;;;;;5033013;28;20048;-65
2021/03/04 00:16:52;;;;;;;35.20;18.50;;;8.80;68.90;;;;;;5033173;28;20061;-66
2021/03/04 00:19:18;;;;;;;38.60;18.15;;;8.70;69.00;;;;;;5030155;28;20037;-67
2021/03/04 00:21:43;;;;;;;35.97;19.33;;;8.80;68.80;;;;;;5021936;28;20070;-66
2021/03/04 00:24:09;;;;;;;39.90;19.38;;;8.70;68.70;;;;;;5014022;28;20129;-66
2021/03/04 00:26:35;;;;;;;40.70;19.17;;;8.70;68.70;;;;;;5032869;28;20021;-65
2021/03/04 00:29:01;;;;;;;36.65;18.45;;;8.70;68.90;;;;;;5032158;28;20055;-66
2021/03/04 00:31:27;;;;;;;36.97;18.63;;;8.70;69.00;;;;;;5027861;28;20030;-66
2021/03/04 00:33:53;;;;;;;38.40;18.13;;;8.60;68.90;;;;;;5026412;28;20033;-66
2021/03/04 00:36:18;;;;;;;32.95;17.35;;;8.60;69.00;;;;;;5032764;28;20033;-68
2021/03/04 00:38:44;;;;;;;35.13;18.65;;;8.60;69.20;;;;;;5033674;28;20036;-66
2021/03/04 00:41:10;;;;;;;33.47;17.77;;;8.70;69.30;;;;;;5031938;28;20484;-67
2021/03/04 00:43:35;;;;;;;34.42;17.65;;;8.70;69.20;;;;;;5032086;28;20088;-67
2021/03/04 00:46:02;;;;;;;33.50;16.83;;;8.70;69.10;;;;;;5031740;28;20482;-67
2021/03/04 00:48:28;;;;;;;29.15;15.90;;;8.70;69.10;;;;;;5030750;28;20030;-66
2021/03/04 00:50:53;;;;;;;33.38;15.95;;;8.70;69.10;;;;;;5029292;28;20041;-68
2021/03/04 00:53:20;;;;;;;28.05;15.80;;;8.80;69.20;;;;;;5026124;28;20037;-67
2021/03/04 00:55:46;;;;;;;33.22;16.33;;;8.80;69.20;;;;;;5032831;28;20021;-65
2021/03/04 00:58:12;;;;;;;31.85;16.50;;;8.80;69.10;;;;;;5033011;28;20179;-65
2021/03/04 01:00:37;;;;;;;31.30;16.23;;;8.80;69.00;;;;;;5033189;28;20040;-67
2021/03/04 01:03:03;;;;;;;34.20;15.27;;;8.80;68.90;;;;;;5032294;28;20029;-67
2021/03/04 01:05:29;;;;;;;31.80;16.30;;;8.80;69.00;;;;;;5031425;28;20022;-65
2021/03/04 01:07:55;;;;;;;34.10;16.45;;;8.80;68.90;;;;;;5033795;28;20395;-65
2021/03/04 01:10:28;;;;;;;29.45;16.25;;;8.70;68.80;;;;;;5034081;28;20045;-65
2021/03/04 01:12:53;;;;;;;31.90;16.20;;;8.70;69.00;;;;;;5035175;28;20029;-67
2021/03/04 01:15:21;;;;;;;31.17;15.35;;;8.70;68.90;;;;;;5037913;28;20040;-66
2021/03/04 01:17:47;;;;;;;31.27;15.48;;;8.70;69.00;;;;;;5037294;28;20035;-66
2021/03/04 01:20:14;;;;;;;26.98;14.98;;;8.70;68.90;;;;;;5035577;28;20109;-67
2021/03/04 01:22:41;;;;;;;30.58;15.05;;;8.70;69.10;;;;;;5030809;28;20086;-67
2021/03/04 01:25:07;;;;;;;28.38;14.85;;;8.70;69.10;;;;;;5035921;28;20034;-66
2021/03/04 01:27:33;;;;;;;30.25;14.65;;;8.70;69.10;;;;;;5036640;28;20117;-67
2021/03/04 01:29:59;;;;;;;25.25;14.10;;;8.70;69.10;;;;;;5035688;28;20589;-67
2021/03/04 01:32:24;;;;;;;30.80;14.93;;;8.70;69.00;;;;;;5027807;28;20382;-68
2021/03/04 01:34:50;;;;;;;28.55;14.45;;;8.70;69.00;;;;;;5036286;28;20051;-67
2021/03/04 01:37:16;;;;;;;30.65;15.18;;;8.70;69.20;;;;;;5036219;28;20067;-66
2021/03/04 01:39:41;;;;;;;32.33;14.73;;;8.70;69.10;;;;;;5036418;28;20044;-66
2021/03/04 01:42:07;;;;;;;28.65;14.40;;;8.70;69.00;;;;;;5036469;28;20022;-66
2021/03/04 01:44:33;;;;;;;35.45;15.45;;;8.70;69.00;;;;;;5036084;28;20068;-66
2021/03/04 01:46:59;;;;;;;28.75;14.90;;;8.50;69.00;;;;;;5034806;28;20155;-68
2021/03/04 01:49:25;;;;;;;30.38;15.23;;;8.50;69.10;;;;;;5028646;28;20049;-67
2021/03/04 01:51:52;;;;;;;29.50;15.38;;;8.40;69.30;;;;;;5030567;28;20109;-66
2021/03/04 01:54:18;;;;;;;26.77;15.88;;;8.40;69.50;;;;;;5034919;28;20442;-67
2021/03/04 01:56:44;;;;;;;29.58;14.40;;;8.30;69.50;;;;;;5035021;28;20068;-66
2021/03/04 01:59:11;;;;;;;31.38;14.82;;;8.40;69.70;;;;;;5035647;28;20037;-67
2021/03/04 02:04:59;;;;;;;27.63;14.63;;;8.40;69.60;;;;;;5035352;28;20476;-67
2021/03/04 02:08:01;;;;;;;29.55;14.63;;;8.40;69.30;;;;;;5034318;28;20053;-66
2021/03/04 02:10:32;;;;;;;31.70;14.90;;;8.30;69.40;;;;;;5034263;28;20029;-67
2021/03/04 02:13:29;;;;;;;36.55;16.70;;;8.30;69.20;;;;;;5033668;28;20124;-67
2021/03/04 02:16:18;;;;;;;28.80;15.10;;;8.20;69.30;;;;;;5034017;28;20044;-66
2021/03/04 02:18:48;;;;;;;31.65;16.38;;;8.10;69.40;;;;;;5033042;28;20034;-67
2021/03/04 02:21:46;;;;;;;33.90;15.77;;;8.10;69.50;;;;;;5025753;28;20064;-67
2021/03/04 02:24:21;;;;;;;34.42;14.95;;;7.90;69.60;;;;;;5035744;28;20029;-68
2021/03/04 02:27:09;;;;;;;29.75;15.00;;;7.90;69.70;;;;;;5030358;28;20033;-67
2021/03/04 02:29:50;;;;;;;25.58;14.02;;;7.80;69.90;;;;;;5034185;28;20382;-68
2021/03/04 02:32:21;;;;;;;26.70;14.45;;;7.80;70.30;;;;;;5028873;28;20022;-67
2021/03/04 02:35:09;;;;;;;25.73;14.07;;;7.90;70.40;;;;;;5034244;28;20029;-67
2021/03/04 02:37:43;;;;;;;29.48;14.40;;;7.90;70.40;;;;;;5035444;28;20033;-67
2021/03/04 02:40:13;;;;;;;33.55;15.90;;;7.90;70.30;;;;;;5035313;28;20045;-68
2021/03/04 02:42:40;;;;;;;32.53;15.10;;;7.90;70.10;;;;;;5035168;28;20029;-67
2021/03/04 02:45:09;;;;;;;28.17;14.77;;;7.90;70.50;;;;;;5033095;28;20078;-67
2021/03/04 02:47:37;;;;;;;31.33;13.82;;;7.90;70.10;;;;;;5034937;28;20056;-67
2021/03/04 02:50:05;;;;;;;30.20;14.77;;;7.80;70.30;;;;;;5035134;28;20026;-66
2021/03/04 02:52:32;;;;;;;33.50;14.07;;;7.80;70.80;;;;;;5023228;28;20033;-67
2021/03/04 02:55:00;;;;;;;28.80;15.05;;;7.80;70.20;;;;;;5033893;28;20540;-67
2021/03/04 02:57:27;;;;;;;30.60;15.43;;;7.80;70.40;;;;;;5035743;28;20033;-67
2021/03/04 02:59:54;;;;;;;32.42;14.70;;;7.80;70.30;;;;;;5034120;28;20107;-66
2021/03/04 03:02:20;;;;;;;30.48;14.23;;;7.80;70.30;;;;;;5034985;28;20085;-66
2021/03/04 03:04:47;;;;;;;26.77;13.80;;;7.80;70.30;;;;;;5034487;28;20124;-65
2021/03/04 03:07:13;;;;;;;27.35;14.18;;;7.80;70.50;;;;;;5034801;28;20026;-66
2021/03/04 03:09:43;;;;;;;27.35;14.05;;;7.80;70.70;;;;;;5034606;28;20513;-67
2021/03/04 03:12:10;;;;;;;34.63;15.23;;;7.80;70.60;;;;;;5032423;28;20018;-66
2021/03/04 03:14:36;;;;;;;32.58;15.02;;;7.80;70.40;;;;;;5033012;28;20422;-66
2021/03/04 03:17:02;;;;;;;28.02;14.82;;;7.80;70.40;;;;;;5033045;28;20068;-68
2021/03/04 03:19:28;;;;;;;32.50;15.82;;;7.80;70.40;;;;;;5033721;28;20079;-67
2021/03/04 03:21:54;;;;;;;28.30;13.70;;;7.80;70.40;;;;;;5029174;28;20478;-68
2021/03/04 03:24:20;;;;;;;32.97;14.88;;;7.80;70.40;;;;;;5033472;28;20029;-67
2021/03/04 03:26:46;;;;;;;28.60;14.77;;;7.80;70.50;;;;;;5033674;28;20032;-67
2021/03/04 03:29:12;;;;;;;24.95;13.43;;;7.80;70.60;;;;;;5022629;28;20029;-67
2021/03/04 03:31:40;;;;;;;27.30;14.30;;;7.80;70.80;;;;;;5025869;28;20030;-67
2021/03/04 03:34:06;;;;;;;29.20;14.07;;;7.80;70.80;;;;;;5032833;28;20049;-68
2021/03/04 03:36:35;;;;;;;31.83;14.15;;;7.90;70.70;;;;;;5033112;28;20029;-66
2021/03/04 03:39:03;;;;;;;32.90;15.15;;;7.90;70.70;;;;;;5032532;28;20037;-67
2021/03/04 03:41:30;;;;;;;27.95;13.50;;;8.00;70.70;;;;;;5032298;28;20208;-66
2021/03/04 03:43:56;;;;;;;26.88;14.30;;;8.00;70.60;;;;;;5028739;28;20099;-66
2021/03/04 03:46:23;;;;;;;29.10;14.10;;;8.00;70.60;;;;;;5033659;28;20509;-68
2021/03/04 03:48:50;;;;;;;28.23;14.23;;;8.10;70.50;;;;;;5021361;28;20114;-69
2021/03/04 03:51:16;;;;;;;27.70;13.30;;;8.10;70.40;;;;;;5024618;28;20485;-67
2021/03/04 03:53:42;;;;;;;29.08;13.73;;;8.10;70.20;;;;;;5032867;28;20186;-67
2021/03/04 03:56:09;;;;;;;32.80;14.10;;;8.00;70.20;;;;;;5032818;28;20032;-65
2021/03/04 03:58:38;;;;;;;27.77;14.75;;;8.00;70.30;;;;;;5032684;28;20489;-69
2021/03/04 04:01:04;;;;;;;31.42;13.80;;;8.00;70.50;;;;;;5033300;28;20037;-66
2021/03/04 04:03:30;;;;;;;32.05;13.60;;;8.00;70.30;;;;;;5033689;28;20033;-66
2021/03/04 04:05:56;;;;;;;28.48;13.90;;;8.10;70.30;;;;;;5033043;28;20025;-66
2021/03/04 04:08:24;;;;;;;25.35;14.00;;;8.10;70.30;;;;;;5032688;28;20025;-66
2021/03/04 04:10:50;;;;;;;25.83;14.30;;;8.10;70.00;;;;;;5032757;28;20037;-67
2021/03/04 04:13:16;;;;;;;31.27;14.68;;;8.10;69.80;;;;;;5033033;28;20041;-66
2021/03/04 04:15:42;;;;;;;29.25;14.40;;;8.00;69.70;;;;;;5032943;28;20097;-66
2021/03/04 04:18:08;;;;;;;31.23;16.00;;;8.00;69.80;;;;;;5033155;28;20486;-66
2021/03/04 04:20:34;;;;;;;25.20;14.13;;;7.90;70.00;;;;;;5028796;28;20025;-67
2021/03/04 04:23:01;;;;;;;30.17;14.63;;;7.90;70.20;;;;;;5028304;28;20053;-66
2021/03/04 04:25:27;;;;;;;27.98;13.93;;;7.90;70.30;;;;;;5033674;28;20137;-66
2021/03/04 04:27:54;;;;;;;30.65;15.23;;;7.90;70.40;;;;;;5032498;28;20573;-66
2021/03/04 04:30:21;;;;;;;29.13;15.15;;;7.90;70.50;;;;;;5030596;28;20056;-67
2021/03/04 04:32:47;;;;;;;29.10;14.93;;;8.00;70.40;;;;;;5027142;28;20083;-66
2021/03/04 04:35:13;;;;;;;26.92;13.60;;;8.00;70.20;;;;;;5032602;28;20385;-67
2021/03/04 04:37:39;;;;;;;24.52;13.80;;;7.90;70.10;;;;;;5032594;28;20037;-68
2021/03/04 04:40:06;;;;;;;29.02;14.20;;;7.90;70.20;;;;;;5033404;28;20087;-68
2021/03/04 04:42:32;;;;;;;27.38;14.80;;;7.90;70.20;;;;;;5027911;28;20030;-68
2021/03/04 04:44:58;;;;;;;27.83;14.38;;;7.90;70.20;;;;;;5027271;28;20022;-68
2021/03/04 04:47:23;;;;;;;23.95;13.55;;;7.90;70.30;;;;;;5030800;28;20048;-67
2021/03/04 04:49:49;;;;;;;27.42;13.80;;;7.90;70.30;;;;;;5029157;28;20025;-67
2021/03/04 04:52:15;;;;;;;27.92;14.45;;;8.00;70.40;;;;;;5023316;28;20029;-67
2021/03/04 04:57:08;;;;;;;27.38;14.13;;;8.00;70.00;;;;;;5035152;28;20048;-67
2021/03/04 04:59:34;;;;;;;29.80;14.55;;;7.90;69.90;;;;;;5016207;28;20672;-68
2021/03/04 05:02:01;;;;;;;25.58;14.45;;;7.80;70.10;;;;;;5004822;28;20030;-68
2021/03/04 05:04:27;;;;;;;28.08;15.57;;;7.80;70.30;;;;;;4996506;28;20040;-67
2021/03/04 05:06:52;;;;;;;30.10;15.02;;;7.80;70.20;;;;;;5028665;28;20021;-68
2021/03/04 05:09:18;;;;;;;33.22;15.93;;;7.80;70.10;;;;;;5020362;28;20512;-68
2021/03/04 05:11:44;;;;;;;31.17;16.13;;;7.70;70.10;;;;;;5015040;28;20026;-68
2021/03/04 05:14:09;;;;;;;25.92;14.85;;;7.70;70.10;;;;;;5015746;28;20033;-67
2021/03/04 05:16:35;;;;;;;28.00;14.70;;;7.60;70.20;;;;;;5018141;28;20030;-67
2021/03/04 05:19:00;;;;;;;28.17;15.02;;;7.60;70.40;;;;;;5016409;28;20057;-68
2021/03/04 05:21:26;;;;;;;28.35;14.93;;;7.60;70.90;;;;;;5014868;28;20357;-68
2021/03/04 05:23:52;;;;;;;28.73;14.65;;;7.60;70.40;;;;;;5017787;28;20044;-65
2021/03/04 05:26:17;;;;;;;24.95;13.73;;;7.60;70.40;;;;;;5017237;28;20025;-67
2021/03/04 05:28:43;;;;;;;29.67;13.43;;;7.50;70.30;;;;;;5016522;28;20168;-68
2021/03/04 05:31:09;;;;;;;30.38;15.07;;;7.50;70.30;;;;;;5050144;28;20033;-68
2021/03/04 05:33:34;;;;;;;31.15;14.32;;;7.50;70.40;;;;;;5022714;28;20066;-68
2021/03/04 05:36:00;;;;;;;28.95;14.43;;;7.50;70.40;;;;;;5017283;28;20531;-68
2021/03/04 05:38:25;;;;;;;23.58;12.23;;;7.50;70.50;;;;;;5030366;28;20183;-66
2021/03/04 05:40:51;;;;;;;28.83;13.65;;;7.50;70.70;;;;;;5026921;28;20527;-67
2021/03/04 05:43:17;;;;;;;26.92;14.02;;;7.50;70.80;;;;;;5051100;28;20599;-68
2021/03/04 05:45:49;;;;;;;27.30;13.43;;;7.50;70.70;;;;;;5025366;28;20017;-68
2021/03/04 05:48:19;;;;;;;23.73;13.02;;;7.50;70.70;;;;;;5012789;28;20473;-67
2021/03/04 05:50:51;;;;;;;26.88;13.68;;;7.50;70.50;;;;;;5024562;28;20397;-67
2021/03/04 05:53:20;;;;;;;28.30;13.95;;;7.50;70.40;;;;;;5021836;28;20029;-66
2021/03/04 05:55:46;;;;;;;23.95;13.05;;;7.50;70.20;;;;;;5023840;28;20056;-69
2021/03/04 05:58:12;;;;;;;25.88;12.88;;;7.40;70.20;;;;;;5018445;28;20022;-67
2021/03/04 06:00:42;;;;;;;31.23;14.15;;;7.30;70.20;;;;;;5028644;28;20025;-68
2021/03/04 06:03:08;;;;;;;27.30;13.82;;;7.30;70.80;;;;;;5032263;28;20020;-67
2021/03/04 06:05:34;;;;;;;25.77;13.98;;;7.20;70.40;;;;;;5052723;28;20033;-65
2021/03/04 06:08:05;;;;;;;28.30;12.65;;;7.20;70.50;;;;;;5024739;28;20025;-65
2021/03/04 06:10:31;;;;;;;26.13;13.45;;;7.20;70.60;;;;;;5023825;28;20018;-65
2021/03/04 06:12:58;;;;;;;25.38;13.02;;;7.10;70.60;;;;;;5020673;28;20043;-67
2021/03/04 06:15:24;;;;;;;28.27;13.70;;;7.20;70.80;;;;;;5033716;28;20476;-66
2021/03/04 06:18:00;;;;;;;27.40;14.07;;;7.20;70.70;;;;;;5033147;28;20033;-66
2021/03/04 06:20:55;;;;;;;24.48;12.70;;;7.20;71.30;;;;;;5025572;28;20025;-65
2021/03/04 06:23:31;;;;;;;23.95;12.38;;;7.20;70.70;;;;;;5010726;28;20619;-66
2021/03/04 06:25:57;;;;;;;26.60;12.93;;;7.20;70.70;;;;;;5004781;28;20041;-66
2021/03/04 06:28:31;;;;;;;27.02;12.88;;;7.30;70.60;;;;;;5023860;28;20029;-67
2021/03/04 06:30:56;;;;;;;26.10;12.27;;;7.30;70.60;;;;;;5031087;28;20036;-66
2021/03/04 06:33:22;;;;;;;23.70;11.13;;;7.30;70.40;;;;;;5014712;28;20025;-67
2021/03/04 06:35:48;;;;;;;25.45;11.10;;;7.30;70.40;;;;;;5002667;28;20093;-67
2021/03/04 06:38:18;;;;;;;24.38;12.32;;;7.40;70.50;;;;;;5028662;28;20116;-68
2021/03/04 06:40:45;;;;;;;22.20;10.95;;;7.40;70.40;;;;;;4996161;28;20176;-71
2021/03/04 06:43:22;;;;;;;20.33;11.02;;;7.50;70.40;;;;;;5030004;28;20021;-66
2021/03/04 06:45:48;;;;;;;19.65;10.73;;;7.50;70.40;;;;;;5023377;28;20553;-67
2021/03/04 06:48:17;;;;;;;23.33;12.40;;;7.60;70.10;;;;;;5014870;28;20504;-67
2021/03/04 06:50:48;;;;;;;20.13;10.43;;;7.60;70.10;;;;;;5011136;28;20426;-67
2021/03/04 06:53:19;;;;;;;24.50;12.85;;;7.60;70.10;;;;;;5014775;28;20411;-68
2021/03/04 06:56:06;;;;;;;21.50;10.93;;;7.60;70.00;;;;;;5003064;28;20038;-67
2021/03/04 06:58:32;;;;;;;20.65;11.15;;;7.70;70.00;;;;;;4995884;28;20049;-67
2021/03/04 07:01:17;;;;;;;19.48;10.35;;;7.70;69.70;;;;;;4998580;28;20531;-66
2021/03/04 07:03:50;;;;;;;21.08;10.57;;;7.70;69.60;;;;;;4995487;28;20040;-66
2021/03/04 07:06:18;;;;;;;20.00;10.43;;;7.70;69.70;;;;;;5001083;28;20090;-66
2021/03/04 07:08:48;;;;;;;22.08;10.82;;;7.70;69.80;;;;;;5014739;28;20028;-66
2021/03/04 07:11:38;;;;;;;19.75;9.27;;;7.70;69.70;;;;;;5014915;28;20082;-66
2021/03/04 07:14:06;;;;;;;25.45;10.02;;;7.70;69.60;;;;;;5021176;28;20037;-66
2021/03/04 07:16:37;;;;;;;18.50;9.45;;;7.70;69.50;;;;;;5022847;28;20037;-66
2021/03/04 07:19:03;;;;;;;18.88;10.07;;;7.70;69.40;;;;;;5013577;28;20030;-67
2021/03/04 07:21:44;;;;;;;17.70;9.68;;;7.80;69.40;;;;;;5026259;28;20457;-66
2021/03/04 07:24:10;;;;;;;23.75;9.73;;;7.80;69.40;;;;;;5034215;28;20029;-67
2021/03/04 07:26:38;;;;;;;18.85;9.82;;;7.90;69.40;;;;;;5022921;28;20029;-67
2021/03/04 07:29:06;;;;;;;19.27;9.90;;;8.00;69.30;;;;;;5023247;28;20017;-66
2021/03/04 07:31:32;;;;;;;17.42;9.88;;;8.10;68.90;;;;;;5016047;28;20021;-66
2021/03/04 07:34:00;;;;;;;20.58;9.80;;;8.20;68.70;;;;;;5033929;28;20480;-66
2021/03/04 07:36:26;;;;;;;20.48;9.18;;;8.30;68.30;;;;;;5007186;28;20029;-66
2021/03/04 07:38:57;;;;;;;18.90;9.35;;;8.30;68.10;;;;;;4997094;28;20022;-66
2021/03/04 07:41:44;;;;;;;18.33;8.90;;;8.40;67.90;;;;;;5014646;28;20127;-66
2021/03/04 07:44:30;;;;;;;17.90;9.15;;;8.40;67.70;;;;;;5015697;28;20029;-66
2021/03/04 07:47:03;;;;;;;26.60;12.57;;;8.50;67.60;;;;;;5019479;28;20025;-66
2021/03/04 07:49:47;;;;;;;19.98;9.38;;;8.50;67.50;;;;;;5015488;28;20083;-65
2021/03/04 07:52:23;;;;;;;18.38;9.02;;;8.60;67.10;;;;;;5033117;28;20085;-66
2021/03/04 07:54:53;;;;;;;21.00;9.30;;;8.70;66.70;;;;;;5013937;28;20060;-66
2021/03/04 07:57:23;;;;;;;15.50;8.77;;;9.20;66.20;;;;;;5014469;28;20116;-66
2021/03/04 08:00:02;;;;;;;14.18;8.80;;;9.60;65.30;;;;;;5014286;28;20036;-67
2021/03/04 08:02:32;;;;;;;22.38;9.00;;;10.00;64.30;;;;;;5014720;28;20524;-67
2021/03/04 08:05:30;;;;;;;13.98;8.18;;;10.40;63.20;;;;;;5013259;28;20123;-66
2021/03/04 08:07:56;;;;;;;21.10;10.00;;;10.40;63.00;;;;;;5024633;28;20144;-67
2021/03/04 08:10:23;;;;;;;21.98;9.35;;;10.40;63.00;;;;;;5019194;28;20029;-66
2021/03/04 08:12:58;;;;;;;14.95;9.13;;;10.60;62.60;;;;;;5000169;28;20483;-66
2021/03/04 08:15:32;;;;;;;16.23;8.75;;;11.10;61.70;;;;;;4994568;28;20456;-67
2021/03/04 08:17:58;;;;;;;15.15;8.20;;;11.40;61.00;;;;;;4993712;28;20030;-66
2021/03/04 08:20:24;;;;;;;15.30;8.23;;;11.70;61.30;;;;;;5009590;28;20481;-67
2021/03/04 08:22:56;;;;;;;13.45;6.85;;;12.00;60.40;;;;;;5016726;28;20040;-67
2021/03/04 08:25:26;;;;;;;17.52;7.93;;;12.30;59.50;;;;;;5020731;28;20112;-67
2021/03/04 08:27:56;;;;;;;15.10;7.80;;;12.60;58.30;;;;;;4996720;28;20034;-67
2021/03/04 08:30:26;;;;;;;21.38;8.70;;;12.70;57.70;;;;;;4994548;28;20034;-67
2021/03/04 08:32:56;;;;;;;16.92;8.25;;;12.90;57.80;;;;;;5001891;28;20052;-67
2021/03/04 08:35:22;;;;;;;15.25;7.97;;;13.00;57.50;;;;;;5010577;28;20032;-67
2021/03/04 08:38:05;;;;;;;17.15;7.97;;;13.10;57.60;;;;;;5022804;28;20039;-67
2021/03/04 08:40:42;;;;;;;12.60;7.88;;;13.20;57.40;;;;;;4996054;28;20082;-69
2021/03/04 08:43:17;;;;;;;13.25;7.28;;;13.10;57.40;;;;;;5003657;28;20087;-68
2021/03/04 08:45:44;;;;;;;15.90;8.40;;;13.00;57.40;;;;;;5013074;28;20021;-68
2021/03/04 08:48:12;;;;;;;15.80;7.72;;;12.80;57.90;;;;;;5012828;28;20022;-68
2021/03/04 08:50:44;;;;;;;17.13;7.97;;;12.80;58.10;;;;;;5014257;28;20675;-66
2021/03/04 08:53:15;;;;;;;14.95;7.43;;;13.00;58.00;;;;;;5012945;28;20042;-66
2021/03/04 08:55:48;;;;;;;16.88;8.35;;;13.10;57.30;;;;;;5021164;28;20111;-66
2021/03/04 08:58:13;;;;;;;;;;;13.10;57.40;;;;;;5018517;28;20412;-68
2021/03/04 09:00:45;;;;;;;15.50;7.47;;;13.00;58.40;;;;;;5023597;28;20043;-66
2021/03/04 09:03:11;;;;;;;17.08;7.65;;;13.00;58.20;;;;;;5032637;28;20135;-67
2021/03/04 09:05:40;;;;;;;16.33;7.65;;;13.00;58.10;;;;;;5012757;28;20034;-66
2021/03/04 09:08:08;;;;;;;17.73;8.93;;;13.20;57.90;;;;;;5031151;28;20030;-66
2021/03/04 09:10:47;;;;;;;14.98;7.82;;;13.40;57.70;;;;;;5022269;28;20025;-67
2021/03/04 09:13:39;;;;;;;42.42;20.35;;;13.60;57.40;;;;;;5013071;28;20025;-66
2021/03/04 09:16:07;;;;;;;17.17;8.57;;;13.80;57.60;;;;;;5006412;28;20417;-68
2021/03/04 09:18:42;;;;;;;17.02;8.15;;;14.20;57.10;;;;;;5030554;28;20677;-66
2021/03/04 09:21:13;;;;;;;26.25;7.05;;;14.40;56.30;;;;;;5012980;28;20029;-66
2021/03/04 09:23:39;;;;;;;11.80;6.20;;;14.60;55.20;;;;;;5011273;28;20504;-66
2021/03/04 09:26:06;;;;;;;19.92;7.38;;;14.80;55.10;;;;;;5010681;28;20034;-67
2021/03/04 09:28:32;;;;;;;22.90;7.53;;;15.00;54.50;;;;;;5010779;28;20043;-66
2021/03/04 09:31:08;;;;;;;13.52;6.72;;;15.10;53.00;;;;;;5013524;28;20029;-66
2021/03/04 09:33:34;;;;;;;17.40;6.78;;;15.20;51.90;;;;;;5016384;28;20121;-66
2021/03/04 09:36:02;;;;;;;20.75;6.72;;;15.10;52.00;;;;;;5016277;28;20096;-66
2021/03/04 09:38:31;;;;;;;15.25;7.15;;;15.00;52.00;;;;;;5016644;28;20057;-67
2021/03/04 09:41:11;;;;;;;17.20;7.35;;;14.80;52.80;;;;;;5016677;28;20022;-66
2021/03/04 09:43:48;;;;;;;18.70;6.40;;;14.70;52.20;;;;;;5015715;28;20381;-66
2021/03/04 09:46:30;;;;;;;28.48;7.78;;;14.70;52.80;;;;;;5016099;28;20141;-67
2021/03/04 09:49:15;;;;;;;31.55;8.30;;;14.70;51.90;;;;;;5016388;28;20478;-67
2021/03/04 09:51:43;;;;;;;19.33;8.50;;;14.80;51.70;;;;;;5012997;28;20621;-66
2021/03/04 09:54:10;;;;;;;22.50;9.43;;;14.80;52.40;;;;;;5015269;28;21024;-65
2021/03/04 09:56:36;;;;;;;19.42;10.77;;;14.80;52.00;;;;;;5016174;28;20040;-66
2021/03/04 09:59:03;;;;;;;22.08;10.65;;;14.70;51.80;;;;;;5016321;28;20490;-68
2021/03/04 10:01:34;;;;;;;24.20;10.35;;;14.60;52.80;;;;;;5009694;28;20030;-67
2021/03/04 10:04:05;;;;;;;26.37;13.53;;;14.60;52.70;;;;;;5015081;28;20021;-66
2021/03/04 10:06:36;;;;;;;27.65;12.23;;;14.60;52.40;;;;;;5015954;28;20552;-66
2021/03/04 10:09:03;;;;;;;24.27;12.82;;;14.50;52.70;;;;;;5015413;28;20070;-66
2021/03/04 10:11:31;;;;;;;25.50;10.65;;;14.40;52.50;;;;;;5015568;28;20505;-67
2021/03/04 10:14:07;;;;;;;27.13;11.75;;;14.30;53.10;;;;;;5015489;28;20026;-66
2021/03/04 10:16:33;;;;;;;19.90;10.45;;;14.30;53.40;;;;;;5013939;28;20040;-65
2021/03/04 10:19:00;;;;;;;25.25;12.13;;;14.30;53.60;;;;;;5010916;28;20022;-66
2021/03/04 10:21:26;;;;;;;29.92;12.10;;;14.50;53.40;;;;;;5015927;28;20440;-66
2021/03/04 10:23:52;;;;;;;26.15;11.85;;;14.50;53.00;;;;;;5015728;28;20029;-66
2021/03/04 10:26:17;;;;;;;25.92;10.75;;;14.50;52.60;;;;;;5025467;28;20021;-66
2021/03/04 10:28:43;;;;;;;20.50;9.85;;;14.60;52.50;;;;;;5035729;28;20411;-66
2021/03/04 10:31:09;;;;;;;20.45;10.70;;;14.70;52.10;;;;;;5035818;28;20044;-67
2021/03/04 10:33:34;;;;;;;21.38;10.57;;;14.80;50.80;;;;;;5035209;28;20362;-67
2021/03/04 10:36:00;;;;;;;20.48;9.63;;;14.80;51.20;;;;;;5013882;28;20029;-65
2021/03/04 10:38:26;;;;;;;27.98;11.50;;;14.80;50.60;;;;;;5015910;28;20087;-66
2021/03/04 10:40:52;;;;;;;30.90;11.35;;;14.70;50.50;;;;;;5015769;28;20116;-67
2021/03/04 10:43:18;;;;;;;21.42;9.85;;;14.80;51.20;;;;;;5014634;28;20021;-66
2021/03/04 10:45:44;;;;;;;20.88;10.55;;;14.90;51.00;;;;;;5014421;28;20030;-66
2021/03/04 10:48:10;;;;;;;23.85;11.98;;;14.90;51.20;;;;;;5014797;28;20368;-66
2021/03/04 10:50:37;;;;;;;23.75;11.90;;;15.00;51.00;;;;;;5015177;28;20052;-66
2021/03/04 10:53:02;;;;;;;30.67;11.63;;;15.10;50.20;;;;;;5008537;28;20029;-66
2021/03/04 10:55:29;;;;;;;27.13;11.45;;;15.00;49.80;;;;;;5017685;28;20526;-66
2021/03/04 10:57:55;;;;;;;27.65;11.82;;;15.00;50.60;;;;;;5018619;28;20031;-67
2021/03/04 11:00:21;;;;;;;23.13;13.18;;;15.10;50.60;;;;;;4997683;28;20136;-66
2021/03/04 11:02:46;;;;;;;27.70;12.45;;;15.10;49.80;;;;;;5009148;28;20045;-66
2021/03/04 11:05:12;;;;;;;36.67;13.13;;;15.00;50.40;;;;;;5013365;28;20021;-67
2021/03/04 11:07:38;;;;;;;29.13;12.40;;;15.10;50.80;;;;;;4998060;28;20424;-66
2021/03/04 11:10:09;;;;;;;29.38;11.70;;;15.20;51.10;;;;;;5031475;28;20044;-65
2021/03/04 11:12:35;;;;;;;24.85;12.70;;;15.30;51.00;;;;;;5014109;28;20017;-65
2021/03/04 11:15:02;;;;;;;36.53;13.23;;;15.40;51.10;;;;;;5014413;28;20035;-66
2021/03/04 11:17:28;;;;;;;24.70;13.55;;;15.40;50.80;;;;;;5021964;28;20025;-69
2021/03/04 11:19:54;;;;;;;32.58;11.98;;;15.50;49.80;;;;;;5018676;28;20082;-67
2021/03/04 11:22:19;;;;;;;34.70;13.43;;;15.60;50.30;;;;;;5012969;28;20030;-65
2021/03/04 11:24:48;;;;;;;24.88;13.18;;;15.70;50.50;;;;;;5014220;28;20125;-67
2021/03/04 11:27:15;;;;;;;30.60;12.48;;;15.90;50.30;;;;;;5012879;28;20032;-66
2021/03/04 11:29:42;;;;;;;22.67;11.82;;;16.10;50.00;;;;;;5014785;28;20063;-66
2021/03/04 11:32:07;;;;;;;30.27;12.60;;;16.30;50.10;;;;;;5014618;28;20569;-66
2021/03/04 11:34:34;;;;;;;35.63;15.10;;;16.40;49.40;;;;;;5013866;28;20120;-66
2021/03/04 11:37:00;;;;;;;33.25;14.43;;;16.50;48.80;;;;;;5013527;28;20029;-66
2021/03/04 11:39:25;;;;;;;34.75;14.63;;;16.60;48.60;;;;;;5014811;28;20080;-66
2021/03/04 11:41:51;;;;;;;24.58;13.25;;;16.70;47.90;;;;;;5031636;28;20033;-67
2021/03/04 11:44:17;;;;;;;28.50;12.30;;;16.70;47.90;;;;;;5013649;28;20045;-67
2021/03/04 11:46:42;;;;;;;30.58;12.75;;;16.80;48.20;;;;;;5013948;28;20025;-66
2021/03/04 11:49:08;;;;;;;30.17;12.75;;;16.90;48.20;;;;;;5014397;28;20029;-66
2021/03/04 11:51:34;;;;;;;31.58;13.10;;;16.80;48.10;;;;;;5011899;28;20045;-66
2021/03/04 11:54:00;;;;;;;21.52;11.40;;;16.80;48.30;;;;;;5027616;28;20089;-66
2021/03/04 11:56:31;;;;;;;32.58;12.00;;;16.80;47.50;;;;;;5013362;28;20508;-65
2021/03/04 11:58:57;;;;;;;22.63;10.27;;;16.90;46.30;;;;;;5017896;28;20055;-64
2021/03/04 12:01:23;;;;;;;22.00;10.30;;;16.80;46.70;;;;;;5013831;28;20026;-67
2021/03/04 12:03:48;;;;;;;25.88;10.63;;;16.80;46.60;;;;;;5019618;28;20082;-67
2021/03/04 12:06:14;;;;;;;23.00;8.25;;;17.00;46.70;;;;;;5012619;28;20203;-66
2021/03/04 12:08:40;;;;;;;22.90;7.20;;;17.10;46.50;;;;;;5037855;23;20199;-66
2021/03/04 12:11:05;;;;;;;21.45;8.18;;;17.20;46.60;;;;;;5017908;28;20022;-66
2021/03/04 12:13:31;;;;;;;28.85;8.80;;;17.30;45.70;;;;;;5028724;28;20045;-66
2021/03/04 12:16:01;;;;;;;31.77;8.23;;;17.30;44.60;;;;;;5033868;28;20017;-66
2021/03/04 12:18:27;;;;;;;20.17;7.97;;;17.20;44.60;;;;;;5016223;28;20465;-67
2021/03/04 12:20:53;;;;;;;22.63;7.82;;;17.10;44.50;;;;;;5014186;28;20099;-66
2021/03/04 12:23:19;;;;;;;22.02;8.50;;;17.00;44.60;;;;;;5013633;28;20030;-66
2021/03/04 12:25:44;;;;;;;19.98;7.70;;;16.90;43.90;;;;;;5013807;28;20087;-66
2021/03/04 12:28:10;;;;;;;17.17;8.45;;;16.80;44.80;;;;;;5010159;28;20116;-66
2021/03/04 12:30:36;;;;;;;16.23;6.90;;;16.90;45.30;;;;;;5031941;28;20032;-66
2021/03/04 12:33:01;;;;;;;14.50;6.97;;;17.10;44.70;;;;;;5013700;28;20060;-66
2021/03/04 12:35:27;;;;;;;16.75;7.45;;;17.30;44.70;;;;;;5012286;28;20032;-66
2021/03/04 12:37:52;;;;;;;17.52;7.53;;;17.40;44.50;;;;;;5006476;28;20081;-66
2021/03/04 12:40:18;;;;;;;13.40;6.75;;;17.40;44.20;;;;;;4999432;28;20075;-66
2021/03/04 12:42:44;;;;;;;16.83;6.97;;;17.40;44.10;;;;;;5031088;28;20037;-66
2021/03/04 12:45:10;;;;;;;18.85;6.90;;;17.40;44.40;;;;;;5013445;28;20485;-67
2021/03/04 12:47:36;;;;;;;17.05;7.72;;;17.30;44.10;;;;;;5013958;28;20651;-67
2021/03/04 12:50:03;;;;;;;22.70;7.65;;;17.20;43.70;;;;;;5012101;28;20121;-67